Time;durP1;ratioP1;P1;durP2;ratioP2;P2;SDS_P1;SDS_P2;PMS_P1;PMS_P2;Temp;Humidity;BMP_temperature;BMP_pressure;BME280_temperature;BME280_humidity;BME280_pressure;Samples;Min_cycle;Max_cycle;Signal;HPM_P1;HPM_P2
2021/03/05 00:01:29;;;;;;;74.47;40.90;;;;;;;4.93;71.13;96761.06;1734223;81;26971;-86
2021/03/05 00:03:57;;;;;;;77.00;46.33;;;;;;;4.87;71.12;96757.80;1745616;81;25898;-87
2021/03/05 00:06:24;;;;;;;81.32;45.67;;;;;;;4.81;71.06;96760.42;1736684;81;28547;-86
2021/03/05 00:08:51;;;;;;;73.87;41.90;;;;;;;4.70;71.09;96767.94;1725697;81;26166;-86
2021/03/05 00:11:19;;;;;;;65.12;38.55;;;;;;;4.69;71.33;96769.45;1740273;81;25891;-86
2021/03/05 00:13:46;;;;;;;92.53;51.77;;;;;;;4.65;71.32;96773.02;1746738;81;25708;-86
2021/03/05 00:16:13;;;;;;;100.22;48.70;;;;;;;4.63;71.48;96777.72;1745224;81;25895;-86
2021/03/05 00:18:40;;;;;;;95.65;47.80;;;;;;;4.64;71.57;96778.04;1749353;81;27556;-86
2021/03/05 00:21:08;;;;;;;104.53;48.83;;;;;;;4.63;71.58;96776.88;1737553;82;25810;-87
2021/03/05 00:23:35;;;;;;;107.05;51.98;;;;;;;4.61;71.61;96781.08;1734354;82;25707;-86
2021/03/05 00:26:02;;;;;;;109.75;54.33;;;;;;;4.56;71.61;96779.50;1728144;82;25764;-86
2021/03/05 00:28:30;;;;;;;102.70;51.25;;;;;;;4.55;71.76;96774.34;1728325;82;25782;-87
2021/03/05 00:30:57;;;;;;;70.92;39.83;;;;;;;4.56;71.71;96772.81;1728181;82;28524;-88
2021/03/05 00:33:24;;;;;;;94.90;45.43;;;;;;;4.57;71.68;96770.97;1732391;82;26246;-87
2021/03/05 00:35:52;;;;;;;78.60;40.90;;;;;;;4.57;71.62;96775.81;1732486;82;26585;-88
2021/03/05 00:38:20;;;;;;;60.43;36.90;;;;;;;4.61;71.66;96782.92;1728168;82;25817;-86
2021/03/05 00:40:47;;;;;;;67.00;39.30;;;;;;;4.57;71.64;96773.14;1735501;82;25767;-87
2021/03/05 00:43:15;;;;;;;73.00;43.45;;;;;;;4.56;71.52;96777.34;1726094;82;28421;-88
2021/03/05 00:45:42;;;;;;;77.45;44.58;;;;;;;4.49;71.25;96775.08;1751945;81;26469;-86
2021/03/05 00:48:10;;;;;;;109.27;65.03;;;;;;;4.40;71.21;96777.55;1747974;81;25828;-86
2021/03/05 00:50:38;;;;;;;112.45;52.65;;;;;;;4.33;71.19;96778.31;1751030;81;25616;-87
2021/03/05 00:53:05;;;;;;;102.40;48.98;;;;;;;4.32;71.23;96773.98;1767345;81;25928;-86
2021/03/05 00:55:33;;;;;;;83.67;44.30;;;;;;;4.27;71.17;96775.55;1767210;81;28437;-86
2021/03/05 00:58:00;;;;;;;106.80;48.48;;;;;;;4.18;71.11;96768.66;1752751;81;25720;-86
2021/03/05 01:00:28;;;;;;;100.90;46.80;;;;;;;4.10;71.14;96771.45;1746464;81;25779;-86
2021/03/05 01:02:55;;;;;;;100.07;48.60;;;;;;;4.02;71.13;96763.02;1759030;81;25885;-86
2021/03/05 01:05:23;;;;;;;83.97;43.20;;;;;;;3.96;71.18;96769.94;1746942;81;25771;-86
2021/03/05 01:07:50;;;;;;;98.10;52.78;;;;;;;3.90;71.29;96768.00;1746870;81;27548;-86
2021/03/05 01:10:19;;;;;;;143.13;68.47;;;;;;;3.86;71.36;96761.39;1746727;81;25872;-86
2021/03/05 01:12:46;;;;;;;100.62;49.58;;;;;;;3.80;71.31;96754.11;1766345;81;25707;-85
2021/03/05 01:15:14;;;;;;;85.80;44.83;;;;;;;3.76;71.36;96755.98;1755698;81;25732;-85
2021/03/05 01:17:41;;;;;;;71.95;38.75;;;;;;;3.72;71.31;96754.21;1746831;81;25778;-85
2021/03/05 01:20:20;;;;;;;59.08;34.18;;;;;;;3.72;71.41;96760.88;1756898;81;27640;-85
2021/03/05 01:22:47;;;;;;;53.92;32.65;;;;;;;3.64;71.38;96755.61;1752753;81;25855;-85
2021/03/05 01:25:22;;;;;;;54.23;32.78;;;;;;;3.48;71.22;96758.48;1757897;81;25803;-86
2021/03/05 01:27:50;;;;;;;64.47;36.50;;;;;;;3.41;71.54;96761.03;1729879;82;25840;-86
2021/03/05 01:30:19;;;;;;;60.75;35.65;;;;;;;3.37;71.63;96760.27;1724544;81;25773;-85
2021/03/05 01:32:47;;;;;;;62.40;37.23;;;;;;;3.37;71.83;96752.26;1740656;81;28470;-86
2021/03/05 01:35:19;;;;;;;60.90;34.80;;;;;;;3.29;71.75;96757.15;1748793;81;26588;-85
2021/03/05 01:37:46;;;;;;;59.08;34.80;;;;;;;3.26;71.88;96759.67;1746636;81;26391;-85
2021/03/05 01:40:36;;;;;;;57.58;34.73;;;;;;;3.26;71.96;96758.34;1724441;81;25524;-86
2021/03/05 01:43:09;;;;;;;57.98;34.85;;;;;;;3.20;71.93;96745.73;1741345;81;26555;-86
2021/03/05 01:45:36;;;;;;;;;;;;;;;3.18;71.90;96751.75;1747529;81;27514;-85
2021/03/05 01:48:16;;;;;;;61.40;34.33;;;;;;;3.13;72.11;96747.48;1731108;81;25731;-85
2021/03/05 01:51:18;;;;;;;61.95;36.23;;;;;;;3.08;72.23;96751.19;1730079;81;26136;-85
2021/03/05 01:53:47;;;;;;;56.73;34.00;;;;;;;3.05;72.26;96748.88;1744889;81;25853;-85
2021/03/05 01:56:37;;;;;;;63.35;36.63;;;;;;;3.05;72.27;96752.88;1749216;81;25767;-85
2021/03/05 01:59:07;;;;;;;65.87;36.28;;;;;;;3.10;72.25;96765.17;1752487;81;28896;-85
2021/03/05 02:01:36;;;;;;;60.25;33.25;;;;;;;3.17;72.32;96762.09;1744924;81;25922;-85
2021/03/05 02:04:13;;;;;;;53.95;32.13;;;;;;;3.18;72.21;96757.59;1746600;81;25774;-85
2021/03/05 02:06:41;;;;;;;53.25;33.00;;;;;;;3.08;72.01;96749.02;1749322;81;25780;-86
2021/03/05 02:09:09;;;;;;;50.67;30.90;;;;;;;2.99;72.13;96752.27;1744830;81;25744;-85
2021/03/05 02:11:37;;;;;;;57.38;34.35;;;;;;;2.96;72.26;96744.63;1749404;81;27638;-85
2021/03/05 02:14:07;;;;;;;53.68;32.93;;;;;;;2.95;72.26;96752.30;1746741;81;25540;-86
2021/03/05 02:17:15;;;;;;;54.10;33.33;;;;;;;2.94;72.34;96761.30;1744993;81;25819;-85
2021/03/05 02:20:26;;;;;;;58.35;33.75;;;;;;;2.91;72.38;96754.98;1744738;81;25774;-85
2021/03/05 02:23:34;;;;;;;58.40;33.78;;;;;;;2.94;72.39;96754.64;1745737;81;25898;-86
2021/03/05 02:26:36;;;;;;;59.55;34.65;;;;;;;3.02;72.43;96757.76;1737057;81;27611;-86
2021/03/05 02:29:38;;;;;;;55.85;32.95;;;;;;;3.08;72.39;96757.02;1732284;81;25743;-86
2021/03/05 02:32:26;;;;;;;55.63;31.15;;;;;;;3.07;72.34;96766.86;1747708;81;25725;-86
2021/03/05 02:34:54;;;;;;;51.00;32.00;;;;;;;3.11;72.30;96772.67;1729612;79;26408;-86
2021/03/05 02:37:25;;;;;;;51.63;30.85;;;;;;;3.12;72.17;96767.16;1728759;82;25794;-85
2021/03/05 02:40:22;;;;;;;52.85;30.68;;;;;;;3.00;72.07;96762.44;1722478;81;28887;-86
2021/03/05 02:42:57;;;;;;;54.60;30.65;;;;;;;2.89;72.13;96761.86;1727237;81;26272;-87
2021/03/05 02:45:35;;;;;;;48.48;29.77;;;;;;;2.79;72.25;96747.09;1730971;82;26303;-87
2021/03/05 02:48:10;;;;;;;48.13;29.72;;;;;;;2.79;72.39;96753.75;1740008;82;25885;-87
2021/03/05 02:50:43;;;;;;;47.05;28.77;;;;;;;2.78;72.35;96755.59;1767213;81;25765;-87
2021/03/05 02:53:14;;;;;;;42.48;26.52;;;;;;;2.77;72.40;96746.47;1767163;81;27813;-86
2021/03/05 02:55:42;;;;;;;54.55;32.90;;;;;;;2.85;72.40;96743.72;1767072;81;25699;-88
2021/03/05 02:58:13;;;;;;;54.88;32.13;;;;;;;2.77;72.31;96745.13;1767162;81;25803;-88
2021/03/05 03:00:43;;;;;;;46.80;26.82;;;;;;;2.70;72.30;96741.51;1767136;81;25616;-88
2021/03/05 03:03:12;;;;;;;33.28;19.67;;;;;;;2.62;72.24;96743.74;1767054;80;25867;-88
2021/03/05 03:05:40;;;;;;;33.90;19.00;;;;;;;2.65;72.34;96743.89;1767090;81;27505;-89
2021/03/05 03:08:10;;;;;;;32.08;19.80;;;;;;;2.63;72.34;96745.91;1767011;81;25765;-89
2021/03/05 03:10:38;;;;;;;34.18;20.55;;;;;;;2.63;72.34;96752.06;1757783;80;26368;-89
2021/03/05 03:13:07;;;;;;;31.48;18.82;;;;;;;2.64;72.33;96755.05;1721820;82;26608;-90
2021/03/05 03:15:35;;;;;;;35.90;20.92;;;;;;;2.62;72.33;96753.57;1703472;83;25870;-89
2021/03/05 03:18:06;;;;;;;39.25;23.18;;;;;;;2.44;72.21;96765.33;1720692;82;27547;-90
2021/03/05 03:20:34;;;;;;;47.75;26.90;;;;;;;2.37;72.58;96760.39;1717619;82;26199;-89
2021/03/05 03:23:03;;;;;;;45.67;24.90;;;;;;;2.42;72.78;96767.33;1740500;82;25831;-90
2021/03/05 03:25:30;;;;;;;60.45;34.53;;;;;;;2.45;72.85;96764.33;1739212;82;26531;-89
2021/03/05 03:27:58;;;;;;;44.88;27.37;;;;;;;2.47;72.89;96758.33;1728246;82;25937;-90
2021/03/05 03:30:25;;;;;;;40.78;25.27;;;;;;;2.48;73.03;96758.66;1735616;82;27551;-89
2021/03/05 03:32:54;;;;;;;40.45;24.35;;;;;;;2.45;73.03;96772.31;1740144;82;25672;-90
2021/03/05 03:35:22;;;;;;;44.58;24.67;;;;;;;2.44;73.11;96766.66;1732206;82;25861;-88
2021/03/05 03:37:51;;;;;;;43.05;24.00;;;;;;;2.45;73.22;96764.33;1710964;82;25851;-89
2021/03/05 03:40:21;;;;;;;42.85;24.70;;;;;;;2.45;73.14;96765.66;1735370;82;25870;-89
2021/03/05 03:42:50;;;;;;;36.55;22.93;;;;;;;2.42;73.12;96770.00;1736828;82;27503;-89
2021/03/05 03:45:23;;;;;;;40.12;23.98;;;;;;;2.36;73.18;96761.89;1766942;80;25808;-88
2021/03/05 03:47:52;;;;;;;39.08;20.23;;;;;;;2.34;73.29;96757.23;1761164;81;25823;-88
2021/03/05 03:50:33;;;;;;;36.50;21.20;;;;;;;2.40;73.14;96745.40;1720120;82;25844;-87
2021/03/05 03:53:14;;;;;;;42.35;22.40;;;;;;;2.44;72.94;96742.69;1724337;82;25354;-87
2021/03/05 03:55:42;;;;;;;43.75;23.12;;;;;;;2.44;72.83;96749.34;1726091;82;27618;-87
2021/03/05 03:58:10;;;;;;;46.63;24.95;;;;;;;2.46;72.68;96753.17;1767003;81;25716;-86
2021/03/05 04:00:38;;;;;;;53.55;27.65;;;;;;;2.47;72.59;96754.33;1767081;80;25791;-86
2021/03/05 04:03:07;;;;;;;53.28;29.87;;;;;;;2.50;72.55;96757.14;1767088;80;26534;-87
2021/03/05 04:05:38;;;;;;;48.52;25.57;;;;;;;2.50;72.51;96758.48;1767338;80;25794;-86
2021/03/05 04:08:08;;;;;;;48.78;25.17;;;;;;;2.50;72.42;96753.98;1763487;81;27720;-87
2021/03/05 04:10:36;;;;;;;54.53;26.93;;;;;;;2.48;72.28;96757.32;1723174;82;26116;-86
2021/03/05 04:13:05;;;;;;;49.63;26.40;;;;;;;2.48;72.31;96763.15;1700233;82;25753;-86
2021/03/05 04:15:33;;;;;;;46.92;23.60;;;;;;;2.44;72.31;96754.67;1728146;82;25764;-85
2021/03/05 04:18:00;;;;;;;55.65;28.02;;;;;;;2.41;72.38;96758.22;1728198;82;25999;-85
2021/03/05 04:20:29;;;;;;;46.10;24.57;;;;;;;2.38;72.37;96758.06;1728148;82;27538;-85
2021/03/05 04:22:57;;;;;;;42.00;21.73;;;;;;;2.38;72.35;96763.38;1717803;82;25908;-85
2021/03/05 04:25:24;;;;;;;40.67;22.48;;;;;;;2.39;72.61;96767.70;1726670;81;25762;-85
2021/03/05 04:27:52;;;;;;;40.20;21.75;;;;;;;2.38;72.70;96768.70;1749272;80;26848;-85
2021/03/05 04:30:20;;;;;;;42.85;23.20;;;;;;;2.36;72.77;96776.05;1736449;82;26161;-86
2021/03/05 04:32:47;;;;;;;40.98;23.70;;;;;;;2.37;72.68;96780.37;1738019;81;27565;-86
2021/03/05 04:35:14;;;;;;;45.17;23.27;;;;;;;2.43;72.67;96786.81;1731372;81;25768;-86
2021/03/05 04:37:42;;;;;;;45.65;23.65;;;;;;;2.48;72.59;96791.95;1732109;81;25701;-85
2021/03/05 04:40:11;;;;;;;52.55;24.80;;;;;;;2.45;72.28;96792.30;1749825;81;26486;-86
2021/03/05 04:42:40;;;;;;;55.30;27.02;;;;;;;2.29;72.13;96791.08;1752048;81;25774;-85
2021/03/05 04:45:08;;;;;;;53.13;27.48;;;;;;;2.28;72.25;96788.59;1752495;81;26749;-86
2021/03/05 04:47:36;;;;;;;54.75;26.17;;;;;;;2.22;72.33;96794.09;1743986;81;25708;-86
2021/03/05 04:50:06;;;;;;;68.12;29.90;;;;;;;2.18;72.19;96795.43;1739576;81;26368;-87
2021/03/05 04:52:33;;;;;;;55.73;26.70;;;;;;;2.19;72.44;96806.41;1745411;81;25749;-86
2021/03/05 04:55:01;;;;;;;57.10;26.77;;;;;;;2.21;72.30;96805.74;1733810;81;25810;-86
2021/03/05 04:57:28;;;;;;;55.30;25.40;;;;;;;2.24;72.34;96809.39;1735690;81;27604;-86
2021/03/05 04:59:55;;;;;;;47.83;23.87;;;;;;;2.24;72.27;96814.72;1748078;81;25885;-86
2021/03/05 05:02:22;;;;;;;49.80;24.47;;;;;;;2.23;72.19;96822.88;1739108;81;26506;-86
2021/03/05 05:04:50;;;;;;;49.00;25.37;;;;;;;2.21;72.11;96824.38;1750655;81;26228;-86
2021/03/05 05:07:17;;;;;;;48.40;23.80;;;;;;;2.18;72.12;96819.39;1753559;81;25879;-86
2021/03/05 05:09:44;;;;;;;46.90;22.93;;;;;;;2.13;72.22;96836.41;1754780;81;27613;-86
2021/03/05 05:12:12;;;;;;;50.12;23.38;;;;;;;2.11;72.23;96831.75;1752480;81;25720;-87
2021/03/05 05:14:39;;;;;;;50.70;25.30;;;;;;;2.06;72.17;96834.09;1752009;81;25382;-86
2021/03/05 05:17:06;;;;;;;57.05;27.22;;;;;;;2.01;72.35;96832.46;1726848;81;25895;-86
2021/03/05 05:19:34;;;;;;;58.83;29.55;;;;;;;2.01;72.55;96835.12;1726800;81;25922;-86
2021/03/05 05:22:01;;;;;;;56.75;28.92;;;;;;;2.03;72.61;96835.78;1749379;81;27499;-86
2021/03/05 05:24:28;;;;;;;48.25;24.77;;;;;;;2.08;72.63;96828.09;1752972;81;25715;-86
2021/03/05 05:26:56;;;;;;;55.33;27.17;;;;;;;2.10;72.48;96835.41;1751836;81;26448;-88
2021/03/05 05:29:23;;;;;;;58.73;28.10;;;;;;;2.14;72.52;96827.42;1727255;81;25694;-86
2021/03/05 05:31:51;;;;;;;54.08;25.70;;;;;;;2.21;72.55;96831.54;1734375;79;25848;-88
2021/03/05 05:34:18;;;;;;;51.50;26.20;;;;;;;2.22;72.50;96838.03;1746703;81;27482;-88
2021/03/05 05:36:45;;;;;;;56.00;26.85;;;;;;;2.18;72.42;96838.03;1739702;81;26308;-88
2021/03/05 05:39:13;;;;;;;53.33;26.50;;;;;;;2.16;72.43;96832.91;1732209;81;25806;-88
2021/03/05 05:41:41;;;;;;;66.30;32.50;;;;;;;2.13;72.38;96839.08;1734682;82;26316;-88
2021/03/05 05:44:09;;;;;;;56.48;27.07;;;;;;;2.08;72.44;96842.73;1731540;81;25729;-88
2021/03/05 05:46:37;;;;;;;62.15;29.20;;;;;;;2.03;72.49;96844.61;1767238;81;27585;-88
2021/03/05 05:49:04;;;;;;;57.88;28.32;;;;;;;1.99;72.53;96845.94;1767084;80;25815;-89
2021/03/05 05:51:39;;;;;;;51.95;26.77;;;;;;;1.99;72.55;96834.46;1757651;81;25649;-88
2021/03/05 05:54:11;;;;;;;67.60;30.80;;;;;;;1.97;72.56;96839.13;1730544;80;26576;-88
2021/03/05 05:56:42;;;;;;;189.05;60.98;;;;;;;1.99;72.74;96847.77;1744635;82;25761;-88
2021/03/05 05:59:09;;;;;;;147.07;53.05;;;;;;;2.01;72.80;96849.27;1748265;81;27767;-87
2021/03/05 06:01:37;;;;;;;206.47;78.15;;;;;;;2.04;72.82;96845.44;1767048;81;26201;-88
2021/03/05 06:04:07;;;;;;;123.40;49.00;;;;;;;2.00;72.75;96848.10;1767138;80;25786;-87
2021/03/05 06:06:39;;;;;;;125.78;47.65;;;;;;;1.98;72.77;96854.09;1762254;80;25845;-87
2021/03/05 06:09:06;;;;;;;226.22;72.17;;;;;;;1.98;72.74;96846.11;1719855;82;26356;-87
2021/03/05 06:11:40;;;;;;;240.35;78.25;;;;;;;1.94;72.76;96852.77;1734963;82;27575;-88
2021/03/05 06:14:12;;;;;;;257.25;82.82;;;;;;;1.88;72.73;96852.96;1724816;82;26136;-87
2021/03/05 06:16:55;;;;;;;137.65;51.30;;;;;;;1.83;72.78;96852.63;1767344;80;25933;-87
2021/03/05 06:19:26;;;;;;;95.28;39.73;;;;;;;1.83;72.85;96858.45;1765328;80;26586;-87
2021/03/05 06:21:54;;;;;;;82.60;35.70;;;;;;;1.78;72.90;96861.14;1767143;81;25816;-87
2021/03/05 06:24:22;;;;;;;66.87;34.58;;;;;;;1.80;72.99;96862.31;1767117;81;27489;-87
2021/03/05 06:26:59;;;;;;;68.97;35.75;;;;;;;1.90;73.13;96862.11;1764783;80;25743;-87
2021/03/05 06:29:43;;;;;;;75.20;37.73;;;;;;;2.01;73.13;96865.73;1719782;83;25791;-87
2021/03/05 06:32:14;;;;;;;53.45;28.75;;;;;;;2.09;73.09;96882.50;1719412;83;25809;-86
2021/03/05 06:34:55;;;;;;;40.03;23.18;;;;;;;2.17;73.07;96879.01;1714410;82;25750;-87
2021/03/05 06:37:25;;;;;;;40.70;22.30;;;;;;;2.23;72.90;96882.80;1717509;83;27503;-87
2021/03/05 06:40:08;;;;;;;43.65;22.07;;;;;;;2.14;72.67;96888.66;1725600;83;27135;-87
2021/03/05 06:42:55;;;;;;;47.08;24.90;;;;;;;2.14;72.74;96889.49;1709302;82;25757;-88
2021/03/05 06:45:26;;;;;;;49.13;25.12;;;;;;;2.10;72.71;96896.16;1709458;82;26461;-89
2021/03/05 06:48:09;;;;;;;50.75;25.55;;;;;;;2.12;72.70;96899.98;1747096;81;26046;-88
2021/03/05 06:50:39;;;;;;;48.92;26.70;;;;;;;2.11;72.68;96896.98;1766822;81;27665;-88
2021/03/05 06:53:25;;;;;;;47.67;28.00;;;;;;;2.04;72.69;96892.02;1753827;81;26146;-87
2021/03/05 06:55:53;;;;;;;54.73;28.92;;;;;;;2.01;72.76;96893.69;1737935;81;25835;-87
2021/03/05 06:58:20;;;;;;;47.58;25.72;;;;;;;2.11;72.94;96900.98;1759263;81;26461;-88
2021/03/05 07:00:47;;;;;;;47.75;27.50;;;;;;;2.23;72.83;96903.60;1739779;81;25731;-89
2021/03/05 07:03:25;;;;;;;49.90;26.82;;;;;;;2.22;72.54;96905.09;1738167;81;28527;-89
2021/03/05 07:05:54;;;;;;;45.83;27.55;;;;;;;2.21;72.52;96908.77;1738355;81;25755;-89
2021/03/05 07:08:43;;;;;;;69.42;34.92;;;;;;;2.18;72.53;96921.41;1737431;81;25752;-90
2021/03/05 07:11:17;;;;;;;65.75;35.23;;;;;;;2.22;72.57;96921.91;1737445;81;26446;-89
2021/03/05 07:13:52;;;;;;;69.37;37.73;;;;;;;2.30;72.51;96928.53;1755062;80;25715;-89
2021/03/05 07:16:20;;;;;;;68.75;37.67;;;;;;;2.30;72.48;96917.88;1758970;81;28230;-89
2021/03/05 07:18:47;;;;;;;62.17;32.20;;;;;;;2.24;72.42;96916.42;1739907;81;25725;-89
2021/03/05 07:21:21;;;;;;;51.08;28.45;;;;;;;2.20;72.48;96921.25;1756773;81;25708;-89
2021/03/05 07:23:49;;;;;;;49.40;29.05;;;;;;;2.13;72.47;96925.61;1767872;81;26565;-89
2021/03/05 07:26:18;;;;;;;65.97;38.90;;;;;;;2.08;72.54;96926.60;1751774;81;25777;-89
2021/03/05 07:28:50;;;;;;;58.52;31.77;;;;;;;2.09;72.64;96937.09;1744390;80;27501;-89
2021/03/05 07:31:21;;;;;;;55.35;30.88;;;;;;;2.13;72.64;96933.09;1750154;80;25740;-90
2021/03/05 07:33:57;;;;;;;54.45;27.80;;;;;;;2.15;72.66;96936.42;1701225;83;25768;-90
2021/03/05 07:36:29;;;;;;;51.45;28.70;;;;;;;2.15;72.59;96938.25;1706993;83;25574;-90
2021/03/05 07:39:01;;;;;;;52.08;27.37;;;;;;;2.16;72.59;96944.74;1714478;83;25745;-89
2021/03/05 07:41:30;;;;;;;50.15;27.20;;;;;;;2.17;72.64;96942.38;1709211;83;27552;-90
2021/03/05 07:43:59;;;;;;;48.55;26.65;;;;;;;2.16;72.57;96942.58;1697815;83;25727;-90
2021/03/05 07:46:28;;;;;;;47.08;26.75;;;;;;;2.18;72.64;96948.04;1693697;83;25989;-90
2021/03/05 07:48:56;;;;;;;49.90;26.60;;;;;;;2.19;72.64;96952.87;1693694;83;25681;-89
2021/03/05 07:51:24;;;;;;;54.50;29.95;;;;;;;2.18;72.65;96953.87;1693860;83;25830;-89
2021/03/05 07:53:55;;;;;;;58.50;30.00;;;;;;;2.21;72.77;96950.88;1693694;83;28548;-89
2021/03/05 07:56:49;;;;;;;52.75;27.82;;;;;;;2.22;72.81;96951.20;1693782;83;25795;-90
2021/03/05 07:59:44;;;;;;;51.53;26.80;;;;;;;2.21;72.90;96956.20;1712772;83;25748;-89
2021/03/05 08:02:13;;;;;;;49.38;25.35;;;;;;;2.32;72.87;96959.00;1720134;81;25763;-88
2021/03/05 08:04:56;;;;;;;51.73;27.67;;;;;;;2.40;72.86;96960.33;1704339;82;25817;-86
2021/03/05 08:07:26;;;;;;;50.80;25.85;;;;;;;2.53;72.98;96960.62;1700016;84;27499;-86
2021/03/05 08:09:56;;;;;;;44.80;26.30;;;;;;;2.64;72.76;96960.23;1714160;83;26236;-88
2021/03/05 08:12:34;;;;;;;52.53;26.65;;;;;;;2.71;72.62;96965.20;1693774;83;26322;-86
2021/03/05 08:15:16;;;;;;;45.43;24.95;;;;;;;2.79;72.54;96962.98;1693742;83;27106;-89
2021/03/05 08:17:50;;;;;;;39.53;25.13;;;;;;;2.84;72.41;96977.97;1694096;83;25775;-89
2021/03/05 08:20:22;;;;;;;40.63;23.52;;;;;;;2.86;72.30;96979.97;1693747;83;27489;-88
2021/03/05 08:23:04;;;;;;;45.80;25.27;;;;;;;2.82;72.27;96982.14;1693496;83;43099;-88
2021/03/05 08:25:50;;;;;;;41.98;21.97;;;;;;;2.78;72.13;96985.31;1693775;83;25826;-89
2021/03/05 08:28:42;;;;;;;45.33;24.23;;;;;;;2.74;72.08;96991.51;1693552;83;25747;-90
2021/03/05 08:31:36;;;;;;;51.18;25.60;;;;;;;2.70;72.03;96994.18;1716289;82;26315;-89
2021/03/05 08:34:29;;;;;;;51.40;26.27;;;;;;;2.63;71.97;96995.88;1706084;82;27545;-89
2021/03/05 08:36:57;;;;;;;54.23;26.42;;;;;;;2.59;72.05;96995.05;1695709;83;26234;-89
2021/03/05 08:39:27;;;;;;;57.15;27.27;;;;;;;2.60;72.12;96997.55;1689039;83;25771;-89
2021/03/05 08:42:35;;;;;;;53.52;25.92;;;;;;;2.61;72.26;96994.38;1689032;83;25752;-89
2021/03/05 08:45:24;;;;;;;34.15;18.57;;;;;;;2.60;72.37;97002.05;1689046;83;26368;-88
2021/03/05 08:47:54;;;;;;;22.62;13.75;;;;;;;2.48;72.23;97000.25;1701783;82;28465;-86
2021/03/05 08:50:29;;;;;;;22.75;13.35;;;;;;;2.37;72.30;97004.11;1708831;83;26056;-86
2021/03/05 08:52:55;;;;;;;20.43;13.25;;;;;;;2.43;72.43;97011.41;1688711;83;25878;-86
2021/03/05 08:55:23;;;;;;;23.38;13.65;;;;;;;2.42;72.42;97015.06;1688148;83;25714;-86
2021/03/05 08:57:52;;;;;;;27.98;16.62;;;;;;;2.49;72.47;97013.41;1710193;83;26390;-86
2021/03/05 09:00:22;;;;;;;35.08;21.05;;;;;;;2.54;72.50;97017.70;1706659;82;28460;-85
2021/03/05 09:02:51;;;;;;;36.42;20.00;;;;;;;2.54;72.35;97020.37;1709216;83;26402;-86
2021/03/05 09:05:27;;;;;;;36.83;19.73;;;;;;;2.45;72.33;97027.22;1689005;83;25694;-86
2021/03/05 09:07:58;;;;;;;36.40;20.55;;;;;;;2.42;72.42;97020.89;1688928;83;25803;-86
2021/03/05 09:10:51;;;;;;;28.73;17.55;;;;;;;2.35;72.44;97026.58;1688968;83;25758;-87
2021/03/05 09:16:08;;;;;;;69.95;26.60;;;;;;;2.31;72.64;97034.07;1872940;76;34716;-89
2021/03/05 09:18:38;;;;;;;68.45;27.85;;;;;;;2.31;72.64;97035.91;1851377;77;25857;-87
2021/03/05 09:21:11;;;;;;;57.65;25.92;;;;;;;2.25;72.50;97037.42;1841466;77;27555;-89
2021/03/05 09:23:44;;;;;;;55.35;24.05;;;;;;;2.27;72.76;97044.75;1782376;80;26095;-90
2021/03/05 09:26:15;;;;;;;54.38;25.15;;;;;;;2.41;72.83;97046.73;1795311;79;26498;-87
2021/03/05 09:28:56;;;;;;;45.80;23.55;;;;;;;2.52;72.81;97054.87;1801670;78;25738;-86
2021/03/05 09:31:26;;;;;;;42.45;22.40;;;;;;;2.58;72.74;97049.34;1765099;78;25676;-86
2021/03/05 09:33:53;;;;;;;42.03;22.17;;;;;;;2.51;72.51;97058.03;1774036;78;27487;-88
2021/03/05 09:36:23;;;;;;;37.33;21.12;;;;;;;2.34;72.42;97060.38;1771857;80;25873;-90
2021/03/05 09:38:57;;;;;;;37.65;19.67;;;;;;;2.30;72.77;97064.37;1748809;79;25740;-88
2021/03/05 09:41:33;;;;;;;38.50;21.05;;;;;;;2.36;72.79;97067.70;1763662;79;25837;-90
2021/03/05 09:44:07;;;;;;;28.90;17.67;;;;;;;2.29;72.86;97067.22;1774855;79;25815;-88
2021/03/05 09:46:40;;;;;;;28.47;17.10;;;;;;;2.31;73.07;97063.37;1735082;80;27560;-88
2021/03/05 09:49:29;;;;;;;31.55;18.55;;;;;;;2.33;73.02;97068.53;1752791;79;25981;-87
2021/03/05 09:51:57;;;;;;;33.28;19.60;;;;;;;2.40;73.18;97067.71;1763730;79;26400;-87
2021/03/05 09:54:43;;;;;;;28.62;16.80;;;;;;;2.57;73.10;97068.99;1784246;79;26394;-88
2021/03/05 09:57:12;;;;;;;26.07;16.02;;;;;;;2.65;72.97;97069.83;1781954;79;25752;-86
2021/03/05 09:59:45;;;;;;;27.02;16.77;;;;;;;2.73;72.91;97075.63;1769382;79;27014;-86
2021/03/05 10:02:23;;;;;;;30.20;15.80;;;;;;;2.82;72.92;97072.77;1768979;79;25923;-85
2021/03/05 10:04:52;;;;;;;26.95;14.68;;;;;;;2.90;72.86;97083.90;1769396;79;25746;-86
2021/03/05 10:07:20;;;;;;;26.68;15.80;;;;;;;2.93;72.42;97084.89;1769564;79;26163;-87
2021/03/05 10:09:48;;;;;;;23.38;13.50;;;;;;;2.89;72.34;97078.27;1769386;79;25708;-86
2021/03/05 10:12:15;;;;;;;20.65;13.00;;;;;;;2.88;72.39;97079.27;1768934;79;27537;-85
2021/03/05 10:14:42;;;;;;;27.98;14.90;;;;;;;2.98;72.33;97080.39;1764781;79;25780;-85
2021/03/05 10:17:13;;;;;;;30.52;15.55;;;;;;;3.07;72.31;97089.52;1748094;81;26334;-85
2021/03/05 10:19:43;;;;;;;21.10;14.07;;;;;;;3.11;72.18;97088.19;1748844;81;25818;-86
2021/03/05 10:22:13;;;;;;;23.62;14.20;;;;;;;3.01;71.96;97094.22;1747418;81;25585;-85
2021/03/05 10:24:40;;;;;;;19.32;11.78;;;;;;;2.84;72.11;97094.77;1768454;80;27569;-87
2021/03/05 10:27:11;;;;;;;25.62;13.93;;;;;;;2.88;72.23;97097.92;1740310;81;26390;-86
2021/03/05 10:29:51;;;;;;;24.52;14.00;;;;;;;2.86;72.19;97098.09;1746579;81;25751;-86
2021/03/05 10:32:39;;;;;;;18.73;11.55;;;;;;;2.78;72.20;97100.75;1762396;79;25846;-88
2021/03/05 10:35:15;;;;;;;15.08;9.85;;;;;;;2.74;72.29;97107.45;1762981;81;25791;-87
2021/03/05 10:37:44;;;;;;;8.18;5.22;;;;;;;2.63;72.25;97108.30;1749462;81;27515;-90
2021/03/05 10:40:16;;;;;;;8.20;4.28;;;;;;;2.53;72.04;97110.66;1741674;79;26135;-87
2021/03/05 10:42:43;;;;;;;6.58;4.80;;;;;;;2.31;71.62;97121.97;1737901;79;25758;-85
2021/03/05 10:45:11;;;;;;;10.03;5.80;;;;;;;2.09;71.80;97127.95;1757601;79;25703;-88
2021/03/05 10:47:39;;;;;;;6.60;4.83;;;;;;;2.05;72.15;97134.63;1733458;79;25838;-85
2021/03/05 10:50:07;;;;;;;11.40;5.47;;;;;;;1.92;72.13;97131.61;1732563;81;27508;-85
2021/03/05 10:52:35;;;;;;;15.58;9.65;;;;;;;1.94;72.50;97140.23;1732462;79;25772;-84
2021/03/05 10:55:03;;;;;;;13.15;7.33;;;;;;;1.90;72.59;97138.92;1743146;79;25769;-84
2021/03/05 10:57:30;;;;;;;9.68;5.75;;;;;;;1.87;72.62;97142.73;1732442;79;25809;-84
2021/03/05 10:59:57;;;;;;;11.53;6.60;;;;;;;1.85;72.66;97143.89;1732468;81;25827;-85
2021/03/05 11:02:25;;;;;;;11.10;6.30;;;;;;;1.77;72.66;97144.22;1732665;81;27488;-85
2021/03/05 11:04:52;;;;;;;9.15;5.30;;;;;;;1.64;72.58;97146.52;1732422;79;25761;-85
2021/03/05 11:07:20;;;;;;;10.72;5.95;;;;;;;1.56;72.68;97137.19;1754644;79;25711;-85
2021/03/05 11:09:47;;;;;;;9.93;6.28;;;;;;;1.45;72.88;97148.92;1732613;79;26017;-85
2021/03/05 11:12:14;;;;;;;6.83;5.60;;;;;;;1.58;73.27;97155.62;1732522;79;25704;-85
2021/03/05 11:14:42;;;;;;;7.12;5.05;;;;;;;1.67;73.13;97150.19;1744030;81;27493;-83
2021/03/05 11:17:09;;;;;;;6.35;4.25;;;;;;;1.72;73.02;97157.66;1778970;80;26305;-84
2021/03/05 11:19:36;;;;;;;7.17;4.28;;;;;;;1.54;72.62;97161.78;1765673;79;25750;-86
2021/03/05 11:22:04;;;;;;;7.78;5.28;;;;;;;1.36;72.83;97169.01;1806280;77;25658;-85
2021/03/05 11:24:31;;;;;;;6.47;4.45;;;;;;;1.37;73.18;97174.67;1787352;77;26348;-83
2021/03/05 11:26:59;;;;;;;6.50;4.47;;;;;;;1.44;73.29;97170.39;1797886;77;27473;-84
2021/03/05 11:29:26;;;;;;;8.25;6.03;;;;;;;1.46;73.12;97179.02;1795978;79;25827;-84
2021/03/05 11:31:53;;;;;;;7.47;4.80;;;;;;;1.43;73.17;97174.05;1796364;77;26421;-84
2021/03/05 11:34:21;;;;;;;5.85;3.12;;;;;;;1.40;73.03;97184.99;1751984;79;25755;-84
2021/03/05 11:36:49;;;;;;;5.00;2.80;;;;;;;1.31;73.06;97199.25;1842655;77;25860;-84
2021/03/05 11:39:16;;;;;;;10.05;6.00;;;;;;;1.27;73.16;97199.22;1832826;77;28451;-85
2021/03/05 11:41:44;;;;;;;4.10;3.10;;;;;;;1.30;73.35;97198.91;1794997;77;25756;-85
2021/03/05 11:44:11;;;;;;;13.62;6.00;;;;;;;1.37;73.11;97194.12;1831273;77;25731;-85
2021/03/05 11:46:39;;;;;;;6.72;3.58;;;;;;;1.33;72.93;97203.89;1794454;77;25807;-85
2021/03/05 11:49:06;;;;;;;3.98;3.10;;;;;;;1.36;72.89;97202.25;1809604;77;25844;-85
2021/03/05 11:51:34;;;;;;;4.30;2.72;;;;;;;1.51;73.07;97195.34;1833235;77;27489;-85